Hood, California
Current Conditions -  °F | °C
As of 10:03 PM on Sunday 21 Dec 2014 (Local Time) from KSAC Reporting Station
Scattered Clouds Scattered Clouds  
Wind Chill: 59°   Ceiling: Unl
Heat Index: 59°   Visibility: 10mi
Dew Point: 55°   Wind: 5mph
Humidity: 88%   Direction: 340°NNW
Pressure: 30.27"   Gusts: NA
Location:  38.37°N, 121.52°W
Report Text: KSAC 220603Z AUTO 34004KT 10SM SCT024 15/13 A3027 RMK AO2
Loading
Personal Weather Stations






























Interactive Weather Map New forecast layout! Learn more

10-Day Weather Forecast

Advertisements
Track Severe Weather on mobile